ADDS TAF Board (Experimental) INFO Settings
IDs: Format: Expanded Condensed

KMEM - Memphis Intl, TN, US

Issued at 1514 UTC 23 May 2015
Updated at: 1624 UTC 23 May 2015
Time1554Z 23/17Z 23/18Z 23/19Z 23/20Z 23/21Z 23/22Z 23/23Z 24/00Z 24/01Z 24/02Z 24/03Z 24/04Z 24/05Z
Type OBS PRVL PRVL PRVL PRVL PRVL PRVL PRVL PRVL PRVL PRVL PRVL PRVL PRVL
VIS 10 >6 >6 >6 >6 >6 >6 >6 >6 >6 >6 >6 >6 >6
CIG 150 120 120 120 120 120 120 120 80 80 80 80 80 80
Cover BKN BKN BKN BKN BKN BKN BKN BKN BKN BKN BKN BKN BKN BKN
FltCat VFR VFR VFR VFR VFR VFR VFR VFR VFR VFR VFR VFR VFR VFR
WX -- -- -- -- -- -- -- -- -- -- -- -- -- --
WDir VRB 120 120 120 120 120 120 120 150 150 150 150 150 150
WSpd 5 8 8 8 8 8 8 8 9 9 9 9 9 9
WGst -- -- -- -- -- -- -- -- -- -- -- -- -- --
R09/27
XWnd VRB -4 -4 -4 -4 -4 -4 -4 -8 -8 -8 -8 -8 -8
HWnd VRB 7 7 7 7 7 7 7 5 5 5 5 5 5
R18/36
XWnd VRB 7 7 7 7 7 7 7 4 4 4 4 4 4
HWnd VRB 4 4 4 4 4 4 4 8 8 8 8 8 8

NOTE: TEMPO conditions in [brackets]. Keep in mind TEMPO conditions might be better (lower impact) than prevailing conditions.

Raw TAF
KMEM 231514Z 2315/2412 12005KT P6SM BKN150
  FM231700 12008KT P6SM BKN120
  FM240000 15009KT P6SM BKN080
  FM240900 15010KT P6SM VCSH OVC060


Raw METAR
KMEM 231554Z VRB05KT 10SM BKN150 BKN250 25/12 A3030 RMK AO2 SLP256 T02500122
KMEM 231454Z 12003KT 10SM BKN150 BKN250 22/11 A3030 RMK AO2 SLP256 T02170111 53004
KMEM 231354Z VRB04KT 10SM BKN150 OVC250 20/11 A3030 RMK AO2 SLP256 T02000106

METAR Board
Radar Display
Forecast Discussion

TAF Board Legend

Potential Impact
Threat None Slight Moderate High
Visibility (sm) ≥5.1 5.1>X≥3 3>X≥1 <1
Ceiling (100 ft) ≥30.1 30.1>X≥10 10>X≥5 <5
Wind Speed (kt) <10 10≤X<20 20≤X<30 ≥30
Wind Gust (kt) <15 15≤X<25 25≤X<35 ≥35
Weather No Wx Reported VCTS,-TS,-FZRA,SN TS,FZRA +TS,+FZRA,+SN